sensor_id;sensor_type;location;lat;lon;timestamp;temperature;humidity
17687;DHT22;8962;52.538;13.266;2022-12-29T00:01:41;8.40;99.90
17687;DHT22;8962;52.538;13.266;2022-12-29T00:04:11;8.40;99.90
17687;DHT22;8962;52.538;13.266;2022-12-29T00:06:41;8.40;99.90
17687;DHT22;8962;52.538;13.266;2022-12-29T00:09:09;8.50;99.90
17687;DHT22;8962;52.538;13.266;2022-12-29T00:11:37;8.50;99.90
17687;DHT22;8962;52.538;13.266;2022-12-29T00:14:04;8.50;99.90
17687;DHT22;8962;52.538;13.266;2022-12-29T00:16:48;8.60;99.90
17687;DHT22;8962;52.538;13.266;2022-12-29T00:19:16;8.60;99.90
17687;DHT22;8962;52.538;13.266;2022-12-29T00:22:01;8.60;99.90
17687;DHT22;8962;52.538;13.266;2022-12-29T00:24:46;8.60;99.90
17687;DHT22;8962;52.538;13.266;2022-12-29T00:27:30;8.60;99.90
17687;DHT22;8962;52.538;13.266;2022-12-29T00:30:17;8.70;99.90
17687;DHT22;8962;52.538;13.266;2022-12-29T00:33:09;8.70;99.90
17687;DHT22;8962;52.538;13.266;2022-12-29T00:35:57;8.70;99.90
17687;DHT22;8962;52.538;13.266;2022-12-29T00:38:27;8.60;99.90
17687;DHT22;8962;52.538;13.266;2022-12-29T00:41:12;8.70;99.90
17687;DHT22;8962;52.538;13.266;2022-12-29T00:43:56;8.60;99.90
17687;DHT22;8962;52.538;13.266;2022-12-29T00:46:33;8.60;99.90
17687;DHT22;8962;52.538;13.266;2022-12-29T00:49:02;8.60;99.90
17687;DHT22;8962;52.538;13.266;2022-12-29T00:51:47;8.60;99.90
17687;DHT22;8962;52.538;13.266;2022-12-29T00:54:16;8.60;99.90
17687;DHT22;8962;52.538;13.266;2022-12-29T00:56:45;8.60;99.90
17687;DHT22;8962;52.538;13.266;2022-12-29T00:59:12;8.60;99.90
17687;DHT22;8962;52.538;13.266;2022-12-29T01:01:40;8.60;99.90
17687;DHT22;8962;52.538;13.266;2022-12-29T01:04:07;8.60;99.90
17687;DHT22;8962;52.538;13.266;2022-12-29T01:06:35;8.60;99.90
17687;DHT22;8962;52.538;13.266;2022-12-29T01:09:03;8.70;99.90
17687;DHT22;8962;52.538;13.266;2022-12-29T01:11:50;8.70;99.90
17687;DHT22;8962;52.538;13.266;2022-12-29T01:14:17;8.70;99.90
17687;DHT22;8962;52.538;13.266;2022-12-29T01:16:45;8.60;99.90
17687;DHT22;8962;52.538;13.266;2022-12-29T01:19:12;8.60;99.90
17687;DHT22;8962;52.538;13.266;2022-12-29T01:21:40;8.70;99.90
17687;DHT22;8962;52.538;13.266;2022-12-29T01:24:07;8.70;99.90
17687;DHT22;8962;52.538;13.266;2022-12-29T01:26:34;8.80;99.90
17687;DHT22;8962;52.538;13.266;2022-12-29T01:29:03;8.90;99.90
17687;DHT22;8962;52.538;13.266;2022-12-29T01:31:30;8.80;99.90
17687;DHT22;8962;52.538;13.266;2022-12-29T01:33:57;8.90;99.90
17687;DHT22;8962;52.538;13.266;2022-12-29T01:36:24;8.90;99.90
17687;DHT22;8962;52.538;13.266;2022-12-29T01:38:51;8.90;99.90
17687;DHT22;8962;52.538;13.266;2022-12-29T01:41:20;8.90;99.90
17687;DHT22;8962;52.538;13.266;2022-12-29T01:43:50;8.80;99.90
17687;DHT22;8962;52.538;13.266;2022-12-29T01:46:24;8.80;99.90
17687;DHT22;8962;52.538;13.266;2022-12-29T01:48:55;8.80;99.90
17687;DHT22;8962;52.538;13.266;2022-12-29T01:51:25;8.70;99.90
17687;DHT22;8962;52.538;13.266;2022-12-29T01:53:54;8.70;99.90
17687;DHT22;8962;52.538;13.266;2022-12-29T01:56:23;8.60;99.90
17687;DHT22;8962;52.538;13.266;2022-12-29T01:58:56;8.60;99.90
17687;DHT22;8962;52.538;13.266;2022-12-29T02:01:27;8.50;99.90
17687;DHT22;8962;52.538;13.266;2022-12-29T02:03:55;8.50;99.90
17687;DHT22;8962;52.538;13.266;2022-12-29T02:06:28;8.50;99.90
17687;DHT22;8962;52.538;13.266;2022-12-29T02:08:56;8.50;99.90
17687;DHT22;8962;52.538;13.266;2022-12-29T02:11:25;8.50;99.90
17687;DHT22;8962;52.538;13.266;2022-12-29T02:13:53;8.40;99.90
17687;DHT22;8962;52.538;13.266;2022-12-29T02:16:31;8.40;99.90
17687;DHT22;8962;52.538;13.266;2022-12-29T02:19:25;8.40;99.90
17687;DHT22;8962;52.538;13.266;2022-12-29T02:22:16;8.40;99.90
17687;DHT22;8962;52.538;13.266;2022-12-29T02:25:13;8.50;99.90
17687;DHT22;8962;52.538;13.266;2022-12-29T02:28:09;8.50;99.90
17687;DHT22;8962;52.538;13.266;2022-12-29T02:30:49;8.50;99.90
17687;DHT22;8962;52.538;13.266;2022-12-29T02:33:34;8.60;99.90
17687;DHT22;8962;52.538;13.266;2022-12-29T02:36:10;8.70;99.90
17687;DHT22;8962;52.538;13.266;2022-12-29T02:38:51;8.70;99.90
17687;DHT22;8962;52.538;13.266;2022-12-29T02:41:24;8.70;99.90
17687;DHT22;8962;52.538;13.266;2022-12-29T02:43:58;8.80;99.90
17687;DHT22;8962;52.538;13.266;2022-12-29T02:46:35;8.90;99.90
17687;DHT22;8962;52.538;13.266;2022-12-29T02:49:07;8.90;99.90
17687;DHT22;8962;52.538;13.266;2022-12-29T02:51:42;9.00;99.90
17687;DHT22;8962;52.538;13.266;2022-12-29T02:54:10;9.10;99.90
17687;DHT22;8962;52.538;13.266;2022-12-29T02:56:54;9.20;99.90
17687;DHT22;8962;52.538;13.266;2022-12-29T02:59:22;9.30;99.90
17687;DHT22;8962;52.538;13.266;2022-12-29T03:02:09;9.30;99.90
17687;DHT22;8962;52.538;13.266;2022-12-29T03:07:46;9.40;99.90
17687;DHT22;8962;52.538;13.266;2022-12-29T03:10:30;9.50;99.90
17687;DHT22;8962;52.538;13.266;2022-12-29T03:13:04;9.60;99.90
17687;DHT22;8962;52.538;13.266;2022-12-29T03:15:59;9.70;99.90
17687;DHT22;8962;52.538;13.266;2022-12-29T03:18:39;9.80;99.90
17687;DHT22;8962;52.538;13.266;2022-12-29T03:21:11;9.70;99.90
17687;DHT22;8962;52.538;13.266;2022-12-29T03:23:41;9.70;99.90
17687;DHT22;8962;52.538;13.266;2022-12-29T03:26:10;9.70;99.90
17687;DHT22;8962;52.538;13.266;2022-12-29T03:28:40;9.80;99.90
17687;DHT22;8962;52.538;13.266;2022-12-29T03:31:09;9.80;99.90
17687;DHT22;8962;52.538;13.266;2022-12-29T03:33:41;9.90;99.90
17687;DHT22;8962;52.538;13.266;2022-12-29T03:36:26;9.90;99.90
17687;DHT22;8962;52.538;13.266;2022-12-29T03:38:58;9.90;99.90
17687;DHT22;8962;52.538;13.266;2022-12-29T03:41:30;9.90;99.90
17687;DHT22;8962;52.538;13.266;2022-12-29T03:43:59;10.00;99.90
17687;DHT22;8962;52.538;13.266;2022-12-29T03:46:26;10.00;99.90
17687;DHT22;8962;52.538;13.266;2022-12-29T03:48:55;10.00;99.90
17687;DHT22;8962;52.538;13.266;2022-12-29T03:51:23;10.00;99.90
17687;DHT22;8962;52.538;13.266;2022-12-29T03:53:50;10.00;99.90
17687;DHT22;8962;52.538;13.266;2022-12-29T03:56:18;10.10;99.90
17687;DHT22;8962;52.538;13.266;2022-12-29T03:58:45;10.10;99.90
17687;DHT22;8962;52.538;13.266;2022-12-29T04:01:21;10.10;99.90
17687;DHT22;8962;52.538;13.266;2022-12-29T04:03:48;10.20;99.90
17687;DHT22;8962;52.538;13.266;2022-12-29T04:06:17;10.20;99.90
17687;DHT22;8962;52.538;13.266;2022-12-29T04:08:49;10.20;99.90
17687;DHT22;8962;52.538;13.266;2022-12-29T04:11:16;10.20;99.90
17687;DHT22;8962;52.538;13.266;2022-12-29T04:13:43;10.20;99.90
17687;DHT22;8962;52.538;13.266;2022-12-29T04:16:14;10.20;99.90
17687;DHT22;8962;52.538;13.266;2022-12-29T04:18:41;10.20;99.90
17687;DHT22;8962;52.538;13.266;2022-12-29T04:21:09;10.20;99.90
17687;DHT22;8962;52.538;13.266;2022-12-29T04:23:39;10.20;99.90
17687;DHT22;8962;52.538;13.266;2022-12-29T04:26:08;10.30;99.90
17687;DHT22;8962;52.538;13.266;2022-12-29T04:28:46;10.30;99.90
17687;DHT22;8962;52.538;13.266;2022-12-29T04:31:34;10.40;99.90
17687;DHT22;8962;52.538;13.266;2022-12-29T04:34:02;10.30;99.90
17687;DHT22;8962;52.538;13.266;2022-12-29T04:36:29;10.30;99.90
17687;DHT22;8962;52.538;13.266;2022-12-29T04:38:58;10.30;99.90
17687;DHT22;8962;52.538;13.266;2022-12-29T04:41:26;10.30;99.90
17687;DHT22;8962;52.538;13.266;2022-12-29T04:43:54;10.30;99.90
17687;DHT22;8962;52.538;13.266;2022-12-29T04:46:47;10.20;99.90
17687;DHT22;8962;52.538;13.266;2022-12-29T04:49:33;10.30;99.90
17687;DHT22;8962;52.538;13.266;2022-12-29T04:52:29;10.20;99.90
17687;DHT22;8962;52.538;13.266;2022-12-29T04:54:58;10.20;99.90
17687;DHT22;8962;52.538;13.266;2022-12-29T04:57:25;10.20;99.90
17687;DHT22;8962;52.538;13.266;2022-12-29T04:59:55;10.30;99.90
17687;DHT22;8962;52.538;13.266;2022-12-29T05:02:24;10.30;99.90
17687;DHT22;8962;52.538;13.266;2022-12-29T05:04:51;10.30;99.90
17687;DHT22;8962;52.538;13.266;2022-12-29T05:07:19;10.40;99.90
17687;DHT22;8962;52.538;13.266;2022-12-29T05:09:47;10.40;99.90
17687;DHT22;8962;52.538;13.266;2022-12-29T05:12:16;10.40;99.90
17687;DHT22;8962;52.538;13.266;2022-12-29T05:14:57;10.40;99.90
17687;DHT22;8962;52.538;13.266;2022-12-29T05:17:25;10.40;99.90
17687;DHT22;8962;52.538;13.266;2022-12-29T05:19:52;10.40;99.90
17687;DHT22;8962;52.538;13.266;2022-12-29T05:22:20;10.40;99.90
17687;DHT22;8962;52.538;13.266;2022-12-29T05:24:47;10.40;99.90
17687;DHT22;8962;52.538;13.266;2022-12-29T05:27:16;10.40;99.90
17687;DHT22;8962;52.538;13.266;2022-12-29T05:30:04;10.40;99.90
17687;DHT22;8962;52.538;13.266;2022-12-29T05:32:31;10.50;99.90
17687;DHT22;8962;52.538;13.266;2022-12-29T05:34:58;10.50;99.90
17687;DHT22;8962;52.538;13.266;2022-12-29T05:37:25;10.50;99.90
17687;DHT22;8962;52.538;13.266;2022-12-29T05:39:52;10.60;99.90
17687;DHT22;8962;52.538;13.266;2022-12-29T05:42:21;10.70;99.90
17687;DHT22;8962;52.538;13.266;2022-12-29T05:44:57;10.60;99.90
17687;DHT22;8962;52.538;13.266;2022-12-29T05:47:43;10.60;99.90
17687;DHT22;8962;52.538;13.266;2022-12-29T05:50:39;10.60;99.90
17687;DHT22;8962;52.538;13.266;2022-12-29T05:53:11;10.60;99.90
17687;DHT22;8962;52.538;13.266;2022-12-29T05:55:38;10.70;99.90
17687;DHT22;8962;52.538;13.266;2022-12-29T05:58:07;10.70;99.90
17687;DHT22;8962;52.538;13.266;2022-12-29T06:00:34;10.80;99.90
17687;DHT22;8962;52.538;13.266;2022-12-29T06:03:01;10.80;99.90
17687;DHT22;8962;52.538;13.266;2022-12-29T06:05:28;10.90;99.90
17687;DHT22;8962;52.538;13.266;2022-12-29T06:07:56;10.90;99.90
17687;DHT22;8962;52.538;13.266;2022-12-29T06:10:24;10.90;99.90
17687;DHT22;8962;52.538;13.266;2022-12-29T06:12:57;10.90;99.90
17687;DHT22;8962;52.538;13.266;2022-12-29T06:15:25;10.90;99.90
17687;DHT22;8962;52.538;13.266;2022-12-29T06:17:53;11.00;99.90
17687;DHT22;8962;52.538;13.266;2022-12-29T06:20:21;11.00;99.90
17687;DHT22;8962;52.538;13.266;2022-12-29T06:22:49;11.00;99.90
17687;DHT22;8962;52.538;13.266;2022-12-29T06:25:17;11.00;99.90
17687;DHT22;8962;52.538;13.266;2022-12-29T06:27:44;11.00;99.90
17687;DHT22;8962;52.538;13.266;2022-12-29T06:30:12;11.00;99.90
17687;DHT22;8962;52.538;13.266;2022-12-29T06:32:42;11.00;99.90
17687;DHT22;8962;52.538;13.266;2022-12-29T06:35:11;11.00;99.90
17687;DHT22;8962;52.538;13.266;2022-12-29T06:37:44;11.00;99.90
17687;DHT22;8962;52.538;13.266;2022-12-29T06:40:11;11.10;99.90
17687;DHT22;8962;52.538;13.266;2022-12-29T06:42:59;11.10;99.90
17687;DHT22;8962;52.538;13.266;2022-12-29T06:45:49;11.10;99.90
17687;DHT22;8962;52.538;13.266;2022-12-29T06:48:17;11.10;99.90
17687;DHT22;8962;52.538;13.266;2022-12-29T06:50:44;11.10;99.90
17687;DHT22;8962;52.538;13.266;2022-12-29T06:53:11;11.10;99.90
17687;DHT22;8962;52.538;13.266;2022-12-29T06:55:38;11.00;99.90
17687;DHT22;8962;52.538;13.266;2022-12-29T06:58:05;11.00;99.90
17687;DHT22;8962;52.538;13.266;2022-12-29T07:00:32;10.90;99.90
17687;DHT22;8962;52.538;13.266;2022-12-29T07:03:00;10.90;99.90
17687;DHT22;8962;52.538;13.266;2022-12-29T07:05:28;10.90;99.90
17687;DHT22;8962;52.538;13.266;2022-12-29T07:07:58;11.00;99.90
17687;DHT22;8962;52.538;13.266;2022-12-29T07:10:26;10.90;99.90
17687;DHT22;8962;52.538;13.266;2022-12-29T07:12:53;10.90;99.90
17687;DHT22;8962;52.538;13.266;2022-12-29T07:15:20;10.90;99.90
17687;DHT22;8962;52.538;13.266;2022-12-29T07:17:47;10.90;99.90
17687;DHT22;8962;52.538;13.266;2022-12-29T07:20:15;11.00;99.90
17687;DHT22;8962;52.538;13.266;2022-12-29T07:22:44;11.00;99.90
17687;DHT22;8962;52.538;13.266;2022-12-29T07:25:12;11.00;99.90
17687;DHT22;8962;52.538;13.266;2022-12-29T07:27:40;11.00;99.90
17687;DHT22;8962;52.538;13.266;2022-12-29T07:30:08;10.90;99.90
17687;DHT22;8962;52.538;13.266;2022-12-29T07:32:35;10.80;99.90
17687;DHT22;8962;52.538;13.266;2022-12-29T07:35:03;10.80;99.90
17687;DHT22;8962;52.538;13.266;2022-12-29T07:37:30;10.80;99.90
17687;DHT22;8962;52.538;13.266;2022-12-29T07:39:58;10.80;99.90
17687;DHT22;8962;52.538;13.266;2022-12-29T07:42:26;10.90;99.90
17687;DHT22;8962;52.538;13.266;2022-12-29T07:44:56;10.90;99.90
17687;DHT22;8962;52.538;13.266;2022-12-29T07:47:32;10.90;99.90
17687;DHT22;8962;52.538;13.266;2022-12-29T07:49:59;11.00;99.90
17687;DHT22;8962;52.538;13.266;2022-12-29T07:52:27;10.90;99.90
17687;DHT22;8962;52.538;13.266;2022-12-29T07:54:54;11.00;99.90
17687;DHT22;8962;52.538;13.266;2022-12-29T07:57:22;10.90;99.90
17687;DHT22;8962;52.538;13.266;2022-12-29T07:59:52;10.90;99.90
17687;DHT22;8962;52.538;13.266;2022-12-29T08:02:20;10.90;99.90
17687;DHT22;8962;52.538;13.266;2022-12-29T08:04:51;11.00;99.90
17687;DHT22;8962;52.538;13.266;2022-12-29T08:07:18;11.00;99.90
17687;DHT22;8962;52.538;13.266;2022-12-29T08:09:46;11.00;99.90
17687;DHT22;8962;52.538;13.266;2022-12-29T08:12:13;11.10;99.90
17687;DHT22;8962;52.538;13.266;2022-12-29T08:14:41;11.10;99.90
17687;DHT22;8962;52.538;13.266;2022-12-29T08:17:09;11.10;99.90
17687;DHT22;8962;52.538;13.266;2022-12-29T08:19:37;11.10;99.90
17687;DHT22;8962;52.538;13.266;2022-12-29T08:22:04;11.00;99.90
17687;DHT22;8962;52.538;13.266;2022-12-29T08:24:31;11.10;99.90
17687;DHT22;8962;52.538;13.266;2022-12-29T08:26:58;11.00;99.90
17687;DHT22;8962;52.538;13.266;2022-12-29T08:29:25;11.00;99.90
17687;DHT22;8962;52.538;13.266;2022-12-29T08:31:54;10.90;99.90
17687;DHT22;8962;52.538;13.266;2022-12-29T08:34:20;10.90;99.90
17687;DHT22;8962;52.538;13.266;2022-12-29T08:36:48;10.90;99.90
17687;DHT22;8962;52.538;13.266;2022-12-29T08:39:15;11.00;99.90
17687;DHT22;8962;52.538;13.266;2022-12-29T08:41:42;10.90;99.90
17687;DHT22;8962;52.538;13.266;2022-12-29T08:44:09;10.90;99.90
17687;DHT22;8962;52.538;13.266;2022-12-29T08:46:37;10.80;99.90
17687;DHT22;8962;52.538;13.266;2022-12-29T08:49:05;10.90;99.90
17687;DHT22;8962;52.538;13.266;2022-12-29T08:51:32;11.00;99.90
17687;DHT22;8962;52.538;13.266;2022-12-29T08:54:00;11.00;99.90
17687;DHT22;8962;52.538;13.266;2022-12-29T08:56:27;11.10;99.90
17687;DHT22;8962;52.538;13.266;2022-12-29T08:58:58;11.10;99.90
17687;DHT22;8962;52.538;13.266;2022-12-29T09:01:28;11.20;99.90
17687;DHT22;8962;52.538;13.266;2022-12-29T09:03:56;11.20;99.90
17687;DHT22;8962;52.538;13.266;2022-12-29T09:06:24;11.20;99.90
17687;DHT22;8962;52.538;13.266;2022-12-29T09:08:53;11.20;99.90
17687;DHT22;8962;52.538;13.266;2022-12-29T09:11:23;11.20;99.90
17687;DHT22;8962;52.538;13.266;2022-12-29T09:13:51;11.10;99.90
17687;DHT22;8962;52.538;13.266;2022-12-29T09:16:20;11.20;99.90
17687;DHT22;8962;52.538;13.266;2022-12-29T09:18:48;11.20;99.90
17687;DHT22;8962;52.538;13.266;2022-12-29T09:21:15;11.20;99.90
17687;DHT22;8962;52.538;13.266;2022-12-29T09:23:43;11.20;99.90
17687;DHT22;8962;52.538;13.266;2022-12-29T09:26:10;11.30;99.90
17687;DHT22;8962;52.538;13.266;2022-12-29T09:28:37;11.40;99.90
17687;DHT22;8962;52.538;13.266;2022-12-29T09:31:05;11.40;99.90
17687;DHT22;8962;52.538;13.266;2022-12-29T09:33:32;11.50;99.90
17687;DHT22;8962;52.538;13.266;2022-12-29T09:36:00;11.50;99.90
17687;DHT22;8962;52.538;13.266;2022-12-29T09:38:27;11.60;99.90
17687;DHT22;8962;52.538;13.266;2022-12-29T09:40:59;11.80;99.90
17687;DHT22;8962;52.538;13.266;2022-12-29T09:43:59;11.80;99.90
17687;DHT22;8962;52.538;13.266;2022-12-29T09:46:30;11.80;99.90
17687;DHT22;8962;52.538;13.266;2022-12-29T09:49:08;11.90;99.90
17687;DHT22;8962;52.538;13.266;2022-12-29T09:51:39;12.00;99.90
17687;DHT22;8962;52.538;13.266;2022-12-29T09:54:23;12.10;99.90
17687;DHT22;8962;52.538;13.266;2022-12-29T09:56:52;12.10;99.90
17687;DHT22;8962;52.538;13.266;2022-12-29T09:59:22;12.20;99.90
17687;DHT22;8962;52.538;13.266;2022-12-29T10:01:55;12.30;99.90
17687;DHT22;8962;52.538;13.266;2022-12-29T10:04:26;12.30;99.90
17687;DHT22;8962;52.538;13.266;2022-12-29T10:06:58;12.30;99.90
17687;DHT22;8962;52.538;13.266;2022-12-29T10:09:33;12.20;99.90
17687;DHT22;8962;52.538;13.266;2022-12-29T10:12:20;12.20;99.90
17687;DHT22;8962;52.538;13.266;2022-12-29T10:15:00;12.10;99.90
17687;DHT22;8962;52.538;13.266;2022-12-29T10:17:34;12.10;99.90
17687;DHT22;8962;52.538;13.266;2022-12-29T10:20:23;12.10;99.90
17687;DHT22;8962;52.538;13.266;2022-12-29T10:23:05;12.20;99.90
17687;DHT22;8962;52.538;13.266;2022-12-29T10:25:38;12.30;99.90
17687;DHT22;8962;52.538;13.266;2022-12-29T10:28:17;12.40;99.90
17687;DHT22;8962;52.538;13.266;2022-12-29T10:30:47;12.60;99.90
17687;DHT22;8962;52.538;13.266;2022-12-29T10:33:18;12.80;99.90
17687;DHT22;8962;52.538;13.266;2022-12-29T10:35:47;12.90;99.90
17687;DHT22;8962;52.538;13.266;2022-12-29T10:38:22;13.00;99.90
17687;DHT22;8962;52.538;13.266;2022-12-29T10:40:54;13.10;99.90
17687;DHT22;8962;52.538;13.266;2022-12-29T10:43:27;13.20;99.90
17687;DHT22;8962;52.538;13.266;2022-12-29T10:45:57;13.40;99.90
17687;DHT22;8962;52.538;13.266;2022-12-29T10:48:28;13.40;99.90
17687;DHT22;8962;52.538;13.266;2022-12-29T10:50:58;13.50;99.90
17687;DHT22;8962;52.538;13.266;2022-12-29T10:53:30;13.40;99.90
17687;DHT22;8962;52.538;13.266;2022-12-29T10:56:01;13.60;99.90
17687;DHT22;8962;52.538;13.266;2022-12-29T10:58:31;13.60;99.90
17687;DHT22;8962;52.538;13.266;2022-12-29T11:00:59;13.50;99.90
17687;DHT22;8962;52.538;13.266;2022-12-29T11:06:30;13.40;99.90
17687;DHT22;8962;52.538;13.266;2022-12-29T11:08:59;13.50;99.90
17687;DHT22;8962;52.538;13.266;2022-12-29T11:11:33;13.40;99.90
17687;DHT22;8962;52.538;13.266;2022-12-29T11:14:11;13.40;99.90
17687;DHT22;8962;52.538;13.266;2022-12-29T11:16:39;13.40;99.90
17687;DHT22;8962;52.538;13.266;2022-12-29T11:19:20;13.40;99.90
17687;DHT22;8962;52.538;13.266;2022-12-29T11:21:47;13.50;99.90
17687;DHT22;8962;52.538;13.266;2022-12-29T11:24:23;13.40;99.90
17687;DHT22;8962;52.538;13.266;2022-12-29T11:26:52;13.30;99.90
17687;DHT22;8962;52.538;13.266;2022-12-29T11:29:29;13.30;99.90
17687;DHT22;8962;52.538;13.266;2022-12-29T11:32:11;13.20;99.90
17687;DHT22;8962;52.538;13.266;2022-12-29T11:34:38;13.10;99.90
17687;DHT22;8962;52.538;13.266;2022-12-29T11:37:11;13.00;99.90
17687;DHT22;8962;52.538;13.266;2022-12-29T11:39:50;13.10;99.90
17687;DHT22;8962;52.538;13.266;2022-12-29T11:42:20;13.00;99.90
17687;DHT22;8962;52.538;13.266;2022-12-29T11:44:51;13.00;99.90
17687;DHT22;8962;52.538;13.266;2022-12-29T11:47:26;13.00;99.90
17687;DHT22;8962;52.538;13.266;2022-12-29T11:49:57;13.00;99.90
17687;DHT22;8962;52.538;13.266;2022-12-29T11:52:28;12.90;99.90
17687;DHT22;8962;52.538;13.266;2022-12-29T11:54:57;12.80;99.90
17687;DHT22;8962;52.538;13.266;2022-12-29T11:57:25;12.60;99.90
17687;DHT22;8962;52.538;13.266;2022-12-29T11:59:55;12.40;99.90
17687;DHT22;8962;52.538;13.266;2022-12-29T12:02:40;12.20;99.90
17687;DHT22;8962;52.538;13.266;2022-12-29T12:05:22;11.90;99.90
17687;DHT22;8962;52.538;13.266;2022-12-29T12:07:55;11.70;99.90
17687;DHT22;8962;52.538;13.266;2022-12-29T12:10:27;11.50;99.90
17687;DHT22;8962;52.538;13.266;2022-12-29T12:13:03;11.40;99.90
17687;DHT22;8962;52.538;13.266;2022-12-29T12:15:39;11.30;99.90
17687;DHT22;8962;52.538;13.266;2022-12-29T12:18:10;11.20;99.90
17687;DHT22;8962;52.538;13.266;2022-12-29T12:20:45;11.10;99.90
17687;DHT22;8962;52.538;13.266;2022-12-29T12:23:19;11.10;99.90
17687;DHT22;8962;52.538;13.266;2022-12-29T12:25:56;11.00;99.90
17687;DHT22;8962;52.538;13.266;2022-12-29T12:28:33;10.90;99.90
17687;DHT22;8962;52.538;13.266;2022-12-29T12:31:10;10.90;99.90
17687;DHT22;8962;52.538;13.266;2022-12-29T12:33:44;10.80;99.90
17687;DHT22;8962;52.538;13.266;2022-12-29T12:36:26;10.90;99.90
17687;DHT22;8962;52.538;13.266;2022-12-29T12:39:02;10.90;99.90
17687;DHT22;8962;52.538;13.266;2022-12-29T12:41:39;10.90;99.90
17687;DHT22;8962;52.538;13.266;2022-12-29T12:44:14;10.90;99.90
17687;DHT22;8962;52.538;13.266;2022-12-29T12:47:13;10.90;99.90
17687;DHT22;8962;52.538;13.266;2022-12-29T12:50:12;10.90;99.90
17687;DHT22;8962;52.538;13.266;2022-12-29T12:52:54;11.00;99.90
17687;DHT22;8962;52.538;13.266;2022-12-29T12:55:41;10.90;99.90
17687;DHT22;8962;52.538;13.266;2022-12-29T12:58:19;10.90;99.90
17687;DHT22;8962;52.538;13.266;2022-12-29T13:01:01;10.90;99.90
17687;DHT22;8962;52.538;13.266;2022-12-29T13:03:44;10.80;99.90
17687;DHT22;8962;52.538;13.266;2022-12-29T13:06:21;10.80;99.90
17687;DHT22;8962;52.538;13.266;2022-12-29T13:09:08;10.90;99.90
17687;DHT22;8962;52.538;13.266;2022-12-29T13:11:52;10.90;99.90
17687;DHT22;8962;52.538;13.266;2022-12-29T13:14:34;11.00;99.90
17687;DHT22;8962;52.538;13.266;2022-12-29T13:17:07;11.10;99.90
17687;DHT22;8962;52.538;13.266;2022-12-29T13:19:41;11.00;99.90
17687;DHT22;8962;52.538;13.266;2022-12-29T13:22:15;11.00;99.90
17687;DHT22;8962;52.538;13.266;2022-12-29T13:24:52;11.00;99.90
17687;DHT22;8962;52.538;13.266;2022-12-29T13:27:28;11.00;99.90
17687;DHT22;8962;52.538;13.266;2022-12-29T13:30:03;11.00;99.90
17687;DHT22;8962;52.538;13.266;2022-12-29T13:32:41;11.10;99.90
17687;DHT22;8962;52.538;13.266;2022-12-29T13:35:29;11.10;99.90
17687;DHT22;8962;52.538;13.266;2022-12-29T13:38:03;11.10;99.90
17687;DHT22;8962;52.538;13.266;2022-12-29T13:40:36;11.10;99.90
17687;DHT22;8962;52.538;13.266;2022-12-29T13:43:05;11.20;99.90
17687;DHT22;8962;52.538;13.266;2022-12-29T13:45:32;11.20;99.90
17687;DHT22;8962;52.538;13.266;2022-12-29T13:48:05;11.20;99.90
17687;DHT22;8962;52.538;13.266;2022-12-29T13:50:37;11.20;99.90
17687;DHT22;8962;52.538;13.266;2022-12-29T13:53:15;11.30;99.90
17687;DHT22;8962;52.538;13.266;2022-12-29T13:55:51;11.30;99.90
17687;DHT22;8962;52.538;13.266;2022-12-29T13:58:26;11.30;99.90
17687;DHT22;8962;52.538;13.266;2022-12-29T14:00:58;11.20;99.90
17687;DHT22;8962;52.538;13.266;2022-12-29T14:03:45;11.20;99.90
17687;DHT22;8962;52.538;13.266;2022-12-29T14:06:21;11.10;99.90
17687;DHT22;8962;52.538;13.266;2022-12-29T14:08:50;11.00;99.90
17687;DHT22;8962;52.538;13.266;2022-12-29T14:11:22;11.00;99.90
17687;DHT22;8962;52.538;13.266;2022-12-29T14:13:51;11.00;99.90
17687;DHT22;8962;52.538;13.266;2022-12-29T14:16:28;10.90;99.90
17687;DHT22;8962;52.538;13.266;2022-12-29T14:18:56;10.90;99.90
17687;DHT22;8962;52.538;13.266;2022-12-29T14:21:32;11.00;99.90
17687;DHT22;8962;52.538;13.266;2022-12-29T14:33:20;10.90;99.90
17687;DHT22;8962;52.538;13.266;2022-12-29T14:35:49;10.90;99.90
17687;DHT22;8962;52.538;13.266;2022-12-29T14:38:27;10.90;99.90
17687;DHT22;8962;52.538;13.266;2022-12-29T14:41:15;11.00;99.90
17687;DHT22;8962;52.538;13.266;2022-12-29T14:43:52;11.10;99.90
17687;DHT22;8962;52.538;13.266;2022-12-29T14:46:20;11.20;99.90
17687;DHT22;8962;52.538;13.266;2022-12-29T14:48:47;11.20;99.90
17687;DHT22;8962;52.538;13.266;2022-12-29T14:51:29;11.20;99.90
17687;DHT22;8962;52.538;13.266;2022-12-29T14:53:58;11.30;99.90
17687;DHT22;8962;52.538;13.266;2022-12-29T14:56:27;11.40;99.90
17687;DHT22;8962;52.538;13.266;2022-12-29T14:59:01;11.40;99.90
17687;DHT22;8962;52.538;13.266;2022-12-29T15:01:40;11.60;99.90
17687;DHT22;8962;52.538;13.266;2022-12-29T15:04:17;11.50;99.90
17687;DHT22;8962;52.538;13.266;2022-12-29T15:06:49;11.50;99.90
17687;DHT22;8962;52.538;13.266;2022-12-29T15:09:24;11.50;99.90
17687;DHT22;8962;52.538;13.266;2022-12-29T15:11:57;11.60;99.90
17687;DHT22;8962;52.538;13.266;2022-12-29T15:14:31;11.40;99.90
17687;DHT22;8962;52.538;13.266;2022-12-29T15:16:59;11.20;99.90
17687;DHT22;8962;52.538;13.266;2022-12-29T15:19:26;10.90;99.90
17687;DHT22;8962;52.538;13.266;2022-12-29T15:21:54;10.70;99.90
17687;DHT22;8962;52.538;13.266;2022-12-29T15:24:24;10.50;99.90
17687;DHT22;8962;52.538;13.266;2022-12-29T15:26:53;10.40;99.90
17687;DHT22;8962;52.538;13.266;2022-12-29T15:29:32;10.30;99.90
17687;DHT22;8962;52.538;13.266;2022-12-29T15:32:00;10.20;99.90
17687;DHT22;8962;52.538;13.266;2022-12-29T15:34:30;10.20;99.90
17687;DHT22;8962;52.538;13.266;2022-12-29T15:36:57;10.20;99.90
17687;DHT22;8962;52.538;13.266;2022-12-29T15:39:30;10.10;99.90
17687;DHT22;8962;52.538;13.266;2022-12-29T15:42:02;10.00;99.90
17687;DHT22;8962;52.538;13.266;2022-12-29T15:44:35;9.90;99.90
17687;DHT22;8962;52.538;13.266;2022-12-29T15:47:04;9.90;99.90
17687;DHT22;8962;52.538;13.266;2022-12-29T15:49:32;9.80;99.90
17687;DHT22;8962;52.538;13.266;2022-12-29T15:51:59;9.80;99.90
17687;DHT22;8962;52.538;13.266;2022-12-29T15:54:32;9.80;99.90
17687;DHT22;8962;52.538;13.266;2022-12-29T15:56:59;9.80;99.90
17687;DHT22;8962;52.538;13.266;2022-12-29T15:59:29;9.80;99.90
17687;DHT22;8962;52.538;13.266;2022-12-29T16:01:58;9.90;99.90
17687;DHT22;8962;52.538;13.266;2022-12-29T16:04:27;9.90;99.90
17687;DHT22;8962;52.538;13.266;2022-12-29T16:06:57;10.00;99.90
17687;DHT22;8962;52.538;13.266;2022-12-29T16:09:33;10.10;99.90
17687;DHT22;8962;52.538;13.266;2022-12-29T16:12:03;10.20;99.90
17687;DHT22;8962;52.538;13.266;2022-12-29T16:14:37;10.30;99.90
17687;DHT22;8962;52.538;13.266;2022-12-29T16:17:11;10.40;99.90
17687;DHT22;8962;52.538;13.266;2022-12-29T16:19:39;10.40;99.90
17687;DHT22;8962;52.538;13.266;2022-12-29T16:22:11;10.40;99.90
17687;DHT22;8962;52.538;13.266;2022-12-29T16:24:40;10.50;99.90